KDYA Airport (Demopolis Rgnl) Information

FAA: DYA - ICAO: KDYA

KDYA Airport Location

State Alabama
County Marengo
City Demopolis
KDYA Airport is 6 miles southwest of Demopolis, AL.
Latitude 32-27-49.8000N
Longitude 087-57-14.6000W
Elevation 111ft

KDYA Airport METARs

METAR KDYA 121555Z AUTO 00000KT 10SM SCT014 27/24 A3006 RMK AO2 T02710237
Altimeter 30.06"
Temperature 27.1°C (80.8°F)
Wind 0° at 0KT
Clouds scattered at 1,400ft
Visibility 10.0mi
Time observed: 2022-08-12T15:55:00Z

KDYA Airport Details

Status Operational
Activation October 1943
Ownership Public
Usage Public
Chart ATLANTA
ATC on-site No
Beacon schedule sunset-sunrise
Beacon color clear green

KDYA Airport Contacts

Owner CITY OF DEMOPOLIS
Owner address PO BOX 580, DEMOPOLIS, AL 36732
Owner phone 334-289-0577
Manager JASON PENDERGRASS
Manager address 744 BOYKIN FIELD ROAD, DEMOPOLIS, AL 36732
Manager phone 334-289-0455

KDYA Airport (Demopolis Rgnl) Radio Frequencies

KDYA (Airport) Radio Frequencies

UNICOM 122.8
Common traffic advisory frequency (CTAF) 122.8